createdAt,value
2023-01-12T00:03:04.023Z,2.37
2023-01-12T00:08:07.106Z,1.83
2023-01-12T00:13:09.977Z,1.67
2023-01-12T00:18:14.923Z,1.93
2023-01-12T00:23:17.834Z,2.10
2023-01-12T00:28:20.723Z,2.20
2023-01-12T00:33:24.975Z,2.00
2023-01-12T00:38:28.183Z,1.93
2023-01-12T00:43:48.594Z,1.60
2023-01-12T00:48:52.811Z,2.07
2023-01-12T00:53:56.520Z,1.50
2023-01-12T00:58:59.476Z,1.87
2023-01-12T01:04:03.837Z,1.37
2023-01-12T01:09:07.195Z,1.67
2023-01-12T01:14:10.197Z,1.60
2023-01-12T01:19:14.571Z,1.77
2023-01-12T01:24:17.487Z,1.77
2023-01-12T01:29:20.445Z,1.53
2023-01-12T01:34:25.007Z,1.90
2023-01-12T01:39:27.878Z,1.57
2023-01-12T01:44:51.160Z,2.00
2023-01-12T01:49:57.327Z,1.40
2023-01-12T01:55:07.598Z,2.03
2023-01-12T02:00:13.109Z,1.33
2023-01-12T02:05:20.642Z,1.50
2023-01-12T02:10:23.745Z,1.80
2023-01-12T02:15:46.932Z,1.60
2023-01-12T02:21:04.235Z,1.67
2023-01-12T02:26:36.706Z,2.00
2023-01-12T02:31:46.123Z,1.60
2023-01-12T02:36:58.530Z,1.60
2023-01-12T02:42:29.879Z,1.53
2023-01-12T02:47:43.379Z,2.10
2023-01-12T02:52:51.183Z,1.90
2023-01-12T02:57:56.073Z,1.60
2023-01-12T03:03:00.375Z,1.70
2023-01-12T03:08:05.445Z,1.57
2023-01-12T03:13:12.040Z,1.70
2023-01-12T03:18:19.714Z,1.67
2023-01-12T03:23:28.948Z,1.43
2023-01-12T03:28:37.579Z,1.40
2023-01-12T03:33:44.735Z,1.90
2023-01-12T03:38:58.935Z,1.90
2023-01-12T03:44:06.109Z,1.60
2023-01-12T03:49:16.529Z,2.43
2023-01-12T03:54:21.014Z,1.50
2023-01-12T03:59:24.449Z,1.20
2023-01-12T04:04:28.721Z,1.87
2023-01-12T04:09:31.618Z,1.47
2023-01-12T04:14:34.469Z,1.30
2023-01-12T04:19:38.958Z,1.60
2023-01-12T04:24:41.948Z,1.50
2023-01-12T04:29:45.238Z,1.83
2023-01-12T04:34:49.534Z,1.60
2023-01-12T04:39:52.476Z,1.90
2023-01-12T04:44:55.366Z,1.40
2023-01-12T04:49:59.659Z,1.50
2023-01-12T04:55:02.563Z,1.80
2023-01-12T05:00:07.015Z,1.70
2023-01-12T05:05:11.359Z,1.50
2023-01-12T05:10:23.583Z,2.17
2023-01-12T05:15:26.447Z,2.20
2023-01-12T05:20:30.680Z,1.90
2023-01-12T05:25:33.624Z,1.63
2023-01-12T05:30:36.532Z,2.17
2023-01-12T05:35:40.770Z,2.70
2023-01-12T05:40:43.640Z,1.90
2023-01-12T05:45:46.590Z,2.00
2023-01-12T05:50:50.932Z,2.17
2023-01-12T05:55:53.821Z,2.03
2023-01-12T06:00:56.779Z,1.60
2023-01-12T06:06:01.108Z,1.40
2023-01-12T06:11:04.871Z,1.83
2023-01-12T06:16:09.328Z,1.57
2023-01-12T06:21:13.726Z,1.93
2023-01-12T06:26:17.114Z,2.13
2023-01-12T06:31:20.352Z,2.10
2023-01-12T06:36:24.765Z,1.87
2023-01-12T06:41:45.303Z,1.70
2023-01-12T06:46:48.521Z,1.80
2023-01-12T06:51:52.845Z,2.47
2023-01-12T06:56:56.377Z,1.93
2023-01-12T07:01:59.353Z,1.67
2023-01-12T07:07:03.582Z,1.67
2023-01-12T07:12:07.095Z,1.67
2023-01-12T07:17:09.999Z,1.40
2023-01-12T07:22:14.247Z,1.80
2023-01-12T07:27:17.097Z,1.73
2023-01-12T07:32:19.985Z,2.10
2023-01-12T07:37:24.209Z,1.37
2023-01-12T07:42:27.103Z,1.47
2023-01-12T07:47:30.074Z,2.37
2023-01-12T07:52:34.885Z,1.50
2023-01-12T07:57:37.879Z,1.83
2023-01-12T08:02:40.831Z,1.73
2023-01-12T08:07:45.213Z,2.10
2023-01-12T08:12:51.123Z,1.50
2023-01-12T08:17:58.157Z,1.70
2023-01-12T08:23:06.529Z,1.70
2023-01-12T08:28:09.701Z,1.77
2023-01-12T08:33:12.644Z,1.50
2023-01-12T08:38:17.020Z,1.53
2023-01-12T08:43:39.908Z,1.50
2023-01-12T08:48:43.092Z,1.60
2023-01-12T08:53:49.102Z,1.60
2023-01-12T08:58:51.998Z,1.83
2023-01-12T09:03:56.676Z,1.70
2023-01-12T09:09:03.378Z,1.60
2023-01-12T09:14:06.498Z,1.20
2023-01-12T09:19:11.008Z,1.57
2023-01-12T09:24:15.573Z,2.10
2023-01-12T09:29:18.557Z,2.00
2023-01-12T09:34:21.500Z,1.73
2023-01-12T09:39:28.381Z,1.17
2023-01-12T09:44:54.256Z,1.23
2023-01-12T09:50:09.252Z,2.00
2023-01-12T09:55:18.783Z,1.57
2023-01-12T10:00:22.522Z,1.63
2023-01-12T10:05:40.587Z,1.30
2023-01-12T10:10:59.337Z,1.77
2023-01-12T10:16:08.592Z,1.83
2023-01-12T10:21:12.425Z,1.60
2023-01-12T10:26:23.159Z,1.43
2023-01-12T10:31:27.226Z,1.50
2023-01-12T10:36:30.588Z,1.40
2023-01-12T10:41:35.540Z,1.13
2023-01-12T10:46:38.472Z,1.30
2023-01-12T10:51:51.758Z,1.50
2023-01-12T10:56:59.905Z,1.47
2023-01-12T11:02:15.934Z,1.57
2023-01-12T11:07:21.953Z,1.53
2023-01-12T11:12:32.258Z,1.60
2023-01-12T11:17:51.083Z,1.40
2023-01-12T11:22:58.875Z,1.17
2023-01-12T11:28:07.986Z,1.33
2023-01-12T11:33:14.230Z,1.40
2023-01-12T11:38:20.415Z,1.30
2023-01-12T11:43:55.695Z,0.90
2023-01-12T11:49:07.363Z,1.50
2023-01-12T11:54:15.907Z,1.40
2023-01-12T11:59:27.927Z,1.10
2023-01-12T12:04:44.943Z,1.20
2023-01-12T12:10:06.275Z,0.93
2023-01-12T12:15:22.213Z,1.20
2023-01-12T12:20:33.715Z,0.93
2023-01-12T12:25:46.681Z,1.03
2023-01-12T12:31:13.796Z,0.90
2023-01-12T12:36:22.447Z,1.07
2023-01-12T12:41:55.423Z,1.03
2023-01-12T12:47:08.001Z,0.90
2023-01-12T12:52:13.660Z,0.90
2023-01-12T12:57:18.178Z,1.10
2023-01-12T13:02:53.634Z,1.10
2023-01-12T13:07:56.587Z,1.00
2023-01-12T13:13:31.223Z,0.90
2023-01-12T13:18:44.756Z,1.20
2023-01-12T13:23:52.226Z,1.10
2023-01-12T13:29:32.614Z,0.90
2023-01-12T13:34:46.329Z,1.00
2023-01-12T13:39:56.781Z,1.00
2023-01-12T13:44:59.692Z,0.83
2023-01-12T13:50:05.030Z,0.93
2023-01-12T13:55:20.222Z,0.70
2023-01-12T14:00:24.099Z,0.70
2023-01-12T14:05:41.329Z,0.90
2023-01-12T14:10:51.862Z,0.80
2023-01-12T14:16:19.429Z,0.80
2023-01-12T14:21:26.676Z,0.80
2023-01-12T14:26:30.308Z,0.77
2023-01-12T14:31:37.468Z,0.97
2023-01-12T14:36:46.322Z,0.70
2023-01-12T14:42:08.969Z,0.90
2023-01-12T14:47:24.321Z,0.90
2023-01-12T14:52:32.284Z,0.77
2023-01-12T14:57:37.095Z,0.80
2023-01-12T15:02:41.995Z,1.10
2023-01-12T15:07:58.070Z,2.10
2023-01-12T15:13:23.661Z,1.00
2023-01-12T15:18:43.987Z,0.90
2023-01-12T15:24:07.210Z,0.87
2023-01-12T15:29:10.342Z,1.00
2023-01-12T15:34:13.403Z,0.90
2023-01-12T15:39:17.675Z,0.93
2023-01-12T15:44:22.857Z,1.20
2023-01-12T15:49:25.774Z,1.10
2023-01-12T15:54:30.054Z,1.00
2023-01-12T15:59:33.006Z,1.10
2023-01-12T16:04:42.580Z,0.90
2023-01-12T16:09:47.799Z,1.03
2023-01-12T16:14:50.974Z,1.00
2023-01-12T16:19:54.021Z,1.10
2023-01-12T16:24:58.412Z,1.13
2023-01-12T16:30:01.403Z,1.20
2023-01-12T16:35:04.940Z,1.57
2023-01-12T16:40:10.818Z,1.00
2023-01-12T16:45:13.816Z,1.10
2023-01-12T16:50:16.788Z,1.00
2023-01-12T16:55:21.018Z,1.10
2023-01-12T17:00:24.382Z,1.13
2023-01-12T17:05:27.580Z,1.00
2023-01-12T17:10:31.949Z,1.00
2023-01-12T17:15:35.107Z,1.23
2023-01-12T17:20:38.139Z,1.00
2023-01-12T17:25:42.466Z,1.10
2023-01-12T17:30:45.458Z,1.10
2023-01-12T17:35:49.154Z,1.33
2023-01-12T17:40:53.537Z,1.20
2023-01-12T17:45:56.789Z,1.40
2023-01-12T17:50:59.740Z,3.07
2023-01-12T17:56:06.137Z,1.60
2023-01-12T18:01:12.280Z,1.40
2023-01-12T18:06:25.774Z,1.20
2023-01-12T18:11:31.887Z,1.30
2023-01-12T18:16:35.726Z,1.37
2023-01-12T18:21:38.671Z,1.20
2023-01-12T18:26:42.925Z,1.20
2023-01-12T18:31:47.287Z,1.50
2023-01-12T18:36:50.227Z,1.20
2023-01-12T18:42:11.738Z,1.30
2023-01-12T18:47:32.968Z,1.00
2023-01-12T18:52:53.105Z,1.20
2023-01-12T18:57:57.338Z,1.40
2023-01-12T19:03:00.388Z,1.33
2023-01-12T19:08:26.335Z,1.00
2023-01-12T19:13:48.105Z,1.00
2023-01-12T19:18:50.979Z,1.50
2023-01-12T19:24:11.753Z,1.50
2023-01-12T19:29:16.050Z,0.97
2023-01-12T19:34:19.040Z,0.70
2023-01-12T19:39:34.181Z,0.90
2023-01-12T19:44:38.472Z,0.90
2023-01-12T19:49:41.365Z,1.13
2023-01-12T19:54:44.223Z,1.00
2023-01-12T19:59:48.699Z,1.10
2023-01-12T20:04:51.679Z,0.90
2023-01-12T20:09:54.631Z,1.17
2023-01-12T20:14:59.014Z,0.83
2023-01-12T20:20:01.940Z,0.70
2023-01-12T20:25:05.910Z,0.87
2023-01-12T20:30:18.162Z,0.90
2023-01-12T20:35:24.909Z,0.80
2023-01-12T20:40:27.876Z,0.80
2023-01-12T20:45:32.187Z,0.77
2023-01-12T20:50:35.124Z,0.80
2023-01-12T20:55:42.557Z,0.90
2023-01-12T21:00:47.277Z,1.00
2023-01-12T21:05:50.378Z,0.80
2023-01-12T21:10:54.839Z,0.90
2023-01-12T21:16:01.292Z,0.97
2023-01-12T21:21:04.700Z,1.00
2023-01-12T21:26:09.745Z,0.90
2023-01-12T21:31:14.650Z,1.00
2023-01-12T21:36:18.304Z,0.97
2023-01-12T21:41:22.514Z,0.93
2023-01-12T21:46:28.345Z,0.90
2023-01-12T21:51:31.238Z,0.90
2023-01-12T21:56:34.214Z,0.67
2023-01-12T22:01:38.561Z,0.90
2023-01-12T22:06:41.632Z,0.80
2023-01-12T22:11:44.561Z,0.83
2023-01-12T22:16:48.920Z,0.77
2023-01-12T22:21:51.799Z,0.67
2023-01-12T22:26:55.215Z,1.00
2023-01-12T22:31:59.567Z,0.80
2023-01-12T22:37:02.467Z,0.77
2023-01-12T22:42:05.589Z,0.83
2023-01-12T22:47:09.924Z,0.80
2023-01-12T22:52:12.874Z,0.73
2023-01-12T22:57:15.763Z,0.90
2023-01-12T23:02:37.456Z,0.80
2023-01-12T23:07:40.452Z,0.83
2023-01-12T23:13:03.478Z,0.70
2023-01-12T23:18:08.615Z,0.70
2023-01-12T23:23:11.851Z,0.80
2023-01-12T23:28:15.734Z,0.80
2023-01-12T23:33:20.298Z,0.80
2023-01-12T23:38:23.346Z,0.90
2023-01-12T23:43:27.825Z,0.70
2023-01-12T23:48:32.159Z,1.10
2023-01-12T23:53:35.156Z,1.03
2023-01-12T23:58:38.542Z,0.80
